createdAt,value
2022-12-03T00:00:20.794Z,3.24
2022-12-03T00:01:22.646Z,3.27
2022-12-03T00:02:25.398Z,3.31
2022-12-03T00:03:27.817Z,3.35
2022-12-03T00:04:29.809Z,3.35
2022-12-03T00:05:31.717Z,3.32
2022-12-03T00:06:34.821Z,3.26
2022-12-03T00:07:37.071Z,3.28
2022-12-03T00:08:38.918Z,3.31
2022-12-03T00:09:40.793Z,3.32
2022-12-03T00:10:42.677Z,3.32
2022-12-03T00:11:44.540Z,3.31
2022-12-03T00:12:47.286Z,3.32
2022-12-03T00:13:49.124Z,3.30
2022-12-03T00:14:52.321Z,3.29
2022-12-03T00:15:54.223Z,3.32
2022-12-03T00:16:56.089Z,3.34
2022-12-03T00:17:57.912Z,3.37
2022-12-03T00:18:59.801Z,3.42
2022-12-03T00:20:02.133Z,3.34
2022-12-03T00:21:03.993Z,3.27
2022-12-03T00:22:05.826Z,3.24
2022-12-03T00:23:07.614Z,3.27
2022-12-03T00:24:09.661Z,3.30
2022-12-03T00:25:11.505Z,3.29
2022-12-03T00:26:13.442Z,3.29
2022-12-03T00:27:15.255Z,3.25
2022-12-03T00:28:17.120Z,3.25
2022-12-03T00:29:18.997Z,3.26
2022-12-03T00:30:20.826Z,3.30
2022-12-03T00:31:23.860Z,3.30
2022-12-03T00:32:25.881Z,3.27
2022-12-03T00:33:27.745Z,3.23
2022-12-03T00:34:29.616Z,3.19
2022-12-03T00:35:31.435Z,3.18
2022-12-03T00:36:33.272Z,3.17
2022-12-03T00:37:35.743Z,3.16
2022-12-03T00:38:37.611Z,3.17
2022-12-03T00:39:39.481Z,3.13
2022-12-03T00:40:41.575Z,3.16
2022-12-03T00:41:43.407Z,3.17
2022-12-03T00:42:45.256Z,3.17
2022-12-03T00:43:47.071Z,3.20
2022-12-03T00:44:50.435Z,3.17
2022-12-03T00:45:52.726Z,3.17
2022-12-03T00:46:54.616Z,3.13
2022-12-03T00:47:56.515Z,3.12
2022-12-03T00:48:58.367Z,3.12
2022-12-03T00:50:00.220Z,3.17
2022-12-03T00:51:02.132Z,3.18
2022-12-03T00:52:04.151Z,3.20
2022-12-03T00:53:05.969Z,3.18
2022-12-03T00:54:07.818Z,3.20
2022-12-03T00:55:09.909Z,3.15
2022-12-03T00:56:11.822Z,3.13
2022-12-03T00:57:13.731Z,3.12
2022-12-03T00:58:15.539Z,3.07
2022-12-03T00:59:17.378Z,3.03
2022-12-03T01:00:19.431Z,3.04
2022-12-03T01:01:21.309Z,3.03
2022-12-03T01:02:24.074Z,3.02
2022-12-03T01:03:26.179Z,3.03
2022-12-03T01:04:28.069Z,3.07
2022-12-03T01:05:29.909Z,3.09
2022-12-03T01:06:31.796Z,3.10
2022-12-03T01:07:33.646Z,3.11
2022-12-03T01:08:35.542Z,3.08
2022-12-03T01:09:37.499Z,3.04
2022-12-03T01:10:39.420Z,3.03
2022-12-03T01:11:41.693Z,3.00
2022-12-03T01:12:43.518Z,2.98
2022-12-03T01:13:45.419Z,2.97
2022-12-03T01:14:47.328Z,2.97
2022-12-03T01:15:49.395Z,2.96
2022-12-03T01:16:51.367Z,2.96
2022-12-03T01:17:54.554Z,2.92
2022-12-03T01:18:56.414Z,2.92
2022-12-03T01:19:59.336Z,2.92
2022-12-03T01:21:01.196Z,2.89
2022-12-03T01:22:03.329Z,2.85
2022-12-03T01:23:05.259Z,2.85
2022-12-03T01:24:07.179Z,2.87
2022-12-03T01:25:09.191Z,2.85
2022-12-03T01:26:11.071Z,2.83
2022-12-03T01:27:12.959Z,2.84
2022-12-03T01:28:14.767Z,2.83
2022-12-03T01:29:16.661Z,2.79
2022-12-03T01:30:18.480Z,2.82
2022-12-03T01:31:40.487Z,2.85
2022-12-03T01:32:42.426Z,2.86
2022-12-03T01:33:44.287Z,2.90
2022-12-03T01:34:47.027Z,2.94
2022-12-03T01:35:48.900Z,2.98
2022-12-03T01:36:52.851Z,3.02
2022-12-03T01:37:54.694Z,3.04
2022-12-03T01:38:56.544Z,3.08
2022-12-03T01:39:58.382Z,3.08
2022-12-03T01:41:00.197Z,3.04
2022-12-03T01:42:02.675Z,3.00
2022-12-03T01:43:04.516Z,3.00
2022-12-03T01:44:13.044Z,3.04
2022-12-03T01:45:22.199Z,3.05
2022-12-03T01:46:25.464Z,3.05
2022-12-03T01:47:32.072Z,3.04
2022-12-03T01:48:35.981Z,3.06
2022-12-03T01:49:46.081Z,3.08
2022-12-03T01:50:47.945Z,3.06
2022-12-03T01:51:52.197Z,3.05
2022-12-03T01:52:55.908Z,3.06
2022-12-03T01:53:58.886Z,3.03
2022-12-03T01:55:02.614Z,3.03
2022-12-03T01:56:04.558Z,3.02
2022-12-03T01:57:15.128Z,3.01
2022-12-03T01:58:17.451Z,3.03
2022-12-03T01:59:20.998Z,3.07
2022-12-03T02:00:24.543Z,3.04
2022-12-03T02:01:26.523Z,3.00
2022-12-03T02:02:31.939Z,2.95
2022-12-03T02:03:33.871Z,2.92
2022-12-03T02:04:36.002Z,2.84
2022-12-03T02:05:38.525Z,2.78
2022-12-03T02:06:41.414Z,2.80
2022-12-03T02:07:43.271Z,2.87
2022-12-03T02:08:45.665Z,2.90
2022-12-03T02:09:47.544Z,2.88
2022-12-03T02:10:49.385Z,2.90
2022-12-03T02:11:51.289Z,2.83
2022-12-03T02:13:13.359Z,2.85
2022-12-03T02:14:18.169Z,2.82
2022-12-03T02:15:20.062Z,2.84
2022-12-03T02:16:22.207Z,2.84
2022-12-03T02:17:24.169Z,2.86
2022-12-03T02:18:26.094Z,2.90
2022-12-03T02:19:30.101Z,2.93
2022-12-03T02:20:38.285Z,2.94
2022-12-03T02:21:51.524Z,2.95
2022-12-03T02:22:59.235Z,2.99
2022-12-03T02:24:16.289Z,2.99
2022-12-03T02:25:32.567Z,2.96
2022-12-03T02:26:34.439Z,2.94
2022-12-03T02:27:36.336Z,2.90
2022-12-03T02:28:39.042Z,2.92
2022-12-03T02:29:40.958Z,2.92
2022-12-03T02:30:42.852Z,2.87
2022-12-03T02:31:45.048Z,2.87
2022-12-03T02:32:47.532Z,2.89
2022-12-03T02:33:49.444Z,2.92
2022-12-03T02:34:52.489Z,2.94
2022-12-03T02:35:56.949Z,2.92
2022-12-03T02:37:02.992Z,2.90
2022-12-03T02:38:14.007Z,2.89
2022-12-03T02:39:15.861Z,2.86
2022-12-03T02:40:23.399Z,2.86
2022-12-03T02:41:43.698Z,2.89
2022-12-03T02:42:46.863Z,2.92
2022-12-03T02:43:48.741Z,2.93
2022-12-03T02:44:50.715Z,2.92
2022-12-03T02:45:55.525Z,2.92
2022-12-03T02:46:58.593Z,2.94
2022-12-03T02:48:12.356Z,2.95
2022-12-03T02:49:14.376Z,2.95
2022-12-03T02:50:20.002Z,2.93
2022-12-03T02:51:21.873Z,2.92
2022-12-03T02:52:23.911Z,2.93
2022-12-03T02:53:28.545Z,2.91
2022-12-03T02:54:30.434Z,2.88
2022-12-03T02:55:36.876Z,2.87
2022-12-03T02:56:39.329Z,2.84
2022-12-03T02:57:41.723Z,2.82
2022-12-03T02:58:45.066Z,2.83
2022-12-03T02:59:47.128Z,2.81
2022-12-03T03:00:49.743Z,2.81
2022-12-03T03:01:51.731Z,2.83
2022-12-03T03:02:53.736Z,2.84
2022-12-03T03:03:56.099Z,2.86
2022-12-03T03:04:58.314Z,2.85
2022-12-03T03:06:02.463Z,2.80
2022-12-03T03:07:04.493Z,2.78
2022-12-03T03:08:08.692Z,2.80
2022-12-03T03:09:10.675Z,2.80
2022-12-03T03:10:14.878Z,2.81
2022-12-03T03:11:16.747Z,2.77
2022-12-03T03:12:18.635Z,2.76
2022-12-03T03:13:21.229Z,2.71
2022-12-03T03:14:23.169Z,2.72
2022-12-03T03:15:25.673Z,2.75
2022-12-03T03:16:27.598Z,2.77
2022-12-03T03:17:29.726Z,2.79
2022-12-03T03:18:32.533Z,2.80
2022-12-03T03:19:34.496Z,2.78
2022-12-03T03:20:37.374Z,2.80
2022-12-03T03:21:39.235Z,2.82
2022-12-03T03:22:41.930Z,2.83
2022-12-03T03:23:43.822Z,2.83
2022-12-03T03:24:47.590Z,2.82
2022-12-03T03:25:56.619Z,2.79
2022-12-03T03:26:58.484Z,2.77
2022-12-03T03:28:00.321Z,2.75
2022-12-03T03:29:03.376Z,2.75
2022-12-03T03:30:06.198Z,2.73
2022-12-03T03:31:09.765Z,2.70
2022-12-03T03:32:11.717Z,2.70
2022-12-03T03:33:14.008Z,2.70
2022-12-03T03:34:16.586Z,2.71
2022-12-03T03:35:18.759Z,2.69
2022-12-03T03:36:20.633Z,2.71
2022-12-03T03:37:22.783Z,2.74
2022-12-03T03:38:24.707Z,2.75
2022-12-03T03:39:26.680Z,2.74
2022-12-03T03:40:28.765Z,2.73
2022-12-03T03:41:30.802Z,2.69
2022-12-03T03:42:32.715Z,2.63
2022-12-03T03:43:35.295Z,2.58
2022-12-03T03:44:37.256Z,2.58
2022-12-03T03:45:40.058Z,2.63
2022-12-03T03:46:42.976Z,2.64
2022-12-03T03:47:45.011Z,2.66
2022-12-03T03:48:48.683Z,2.66
2022-12-03T03:49:51.175Z,2.66
2022-12-03T03:50:53.617Z,2.70
2022-12-03T03:51:56.012Z,2.72
2022-12-03T03:52:58.833Z,2.72
2022-12-03T03:54:01.630Z,2.71
2022-12-03T03:55:05.621Z,2.72
2022-12-03T03:56:07.982Z,2.73
2022-12-03T03:57:09.873Z,2.75
2022-12-03T03:58:11.875Z,2.77
2022-12-03T03:59:14.046Z,2.79
2022-12-03T04:00:16.051Z,2.79
2022-12-03T04:01:18.715Z,2.78
2022-12-03T04:02:21.633Z,2.80
2022-12-03T04:03:23.522Z,2.79
2022-12-03T04:04:27.020Z,2.79
2022-12-03T04:05:29.219Z,2.80
2022-12-03T04:06:31.170Z,2.82
2022-12-03T04:07:33.111Z,2.81
2022-12-03T04:08:35.000Z,2.81
2022-12-03T04:09:36.805Z,2.81
2022-12-03T04:10:57.007Z,2.80
2022-12-03T04:12:17.145Z,2.76
2022-12-03T04:13:18.962Z,2.73
2022-12-03T04:14:20.850Z,2.75
2022-12-03T04:15:23.041Z,2.75
2022-12-03T04:16:24.959Z,2.69
2022-12-03T04:17:27.643Z,2.65
2022-12-03T04:18:44.646Z,2.61
2022-12-03T04:19:46.537Z,2.64
2022-12-03T04:20:48.365Z,2.66
2022-12-03T04:22:08.765Z,2.66
2022-12-03T04:23:10.693Z,2.61
2022-12-03T04:24:12.656Z,2.64
2022-12-03T04:25:32.900Z,2.62
2022-12-03T04:26:53.685Z,2.59
2022-12-03T04:28:14.339Z,2.58
2022-12-03T04:29:16.269Z,2.60
2022-12-03T04:30:18.155Z,2.56
2022-12-03T04:31:38.591Z,2.48
2022-12-03T04:32:58.667Z,2.43
2022-12-03T04:34:19.679Z,2.46
2022-12-03T04:35:39.738Z,2.47
2022-12-03T04:36:41.587Z,2.48
2022-12-03T04:37:43.379Z,2.47
2022-12-03T04:38:45.230Z,2.44
2022-12-03T04:39:47.134Z,2.43
2022-12-03T04:41:01.186Z,2.47
2022-12-03T04:42:03.871Z,2.50
2022-12-03T04:43:06.244Z,2.54
2022-12-03T04:45:20.699Z,2.60
2022-12-03T04:46:22.718Z,2.54
2022-12-03T04:47:24.628Z,2.55
2022-12-03T04:48:26.499Z,2.51
2022-12-03T04:49:28.377Z,2.48
2022-12-03T04:50:30.725Z,2.48
2022-12-03T04:51:32.514Z,2.47
2022-12-03T04:52:34.513Z,2.49
2022-12-03T04:53:36.487Z,2.53
2022-12-03T04:54:39.267Z,2.57
2022-12-03T04:55:41.662Z,2.58
2022-12-03T04:56:43.653Z,2.62
2022-12-03T04:57:45.551Z,2.64
2022-12-03T04:58:47.409Z,2.63
2022-12-03T04:59:49.289Z,2.58
2022-12-03T05:00:52.580Z,2.54
2022-12-03T05:01:54.549Z,2.51
2022-12-03T05:02:57.662Z,2.48
2022-12-03T05:03:59.721Z,2.48
2022-12-03T05:05:01.603Z,2.45
2022-12-03T05:06:03.460Z,2.45
2022-12-03T05:07:05.391Z,2.47
2022-12-03T05:08:07.325Z,2.50
2022-12-03T05:09:09.214Z,2.47
2022-12-03T05:10:11.736Z,2.50
2022-12-03T05:11:13.787Z,2.49
2022-12-03T05:12:15.574Z,2.47
2022-12-03T05:13:17.453Z,2.44
2022-12-03T05:14:19.332Z,2.46
2022-12-03T05:15:21.216Z,2.48
2022-12-03T05:16:23.749Z,2.45
2022-12-03T05:17:25.661Z,2.47
2022-12-03T05:18:27.511Z,2.49
2022-12-03T05:19:48.041Z,2.54
2022-12-03T05:20:53.446Z,2.56
2022-12-03T05:21:55.631Z,2.52
2022-12-03T05:22:57.646Z,2.54
2022-12-03T05:23:59.459Z,2.55
2022-12-03T05:25:01.412Z,2.54
2022-12-03T05:26:03.297Z,2.54
2022-12-03T05:27:05.166Z,2.53
2022-12-03T05:28:07.657Z,2.49
2022-12-03T05:29:09.539Z,2.49
2022-12-03T05:30:11.563Z,2.48
2022-12-03T05:31:13.500Z,2.48
2022-12-03T05:32:15.618Z,2.51
2022-12-03T05:33:17.634Z,2.54
2022-12-03T05:34:19.512Z,2.52
2022-12-03T05:35:21.339Z,2.52
2022-12-03T05:36:23.288Z,2.55
2022-12-03T05:37:26.720Z,2.59
2022-12-03T05:38:28.576Z,2.63
2022-12-03T05:39:30.381Z,2.63
2022-12-03T05:40:32.275Z,2.63
2022-12-03T05:41:52.742Z,2.57
2022-12-03T05:42:54.584Z,2.58
2022-12-03T05:43:56.552Z,2.61
2022-12-03T05:44:58.401Z,2.64
2022-12-03T05:46:00.316Z,2.64
2022-12-03T05:47:02.214Z,2.66
2022-12-03T05:48:05.112Z,2.65
2022-12-03T05:49:07.009Z,2.56
2022-12-03T05:50:08.951Z,2.49
2022-12-03T05:51:10.756Z,2.50
2022-12-03T05:52:12.531Z,2.49
2022-12-03T05:53:15.145Z,2.50
2022-12-03T05:54:17.792Z,2.54
2022-12-03T05:55:20.487Z,2.57
2022-12-03T05:56:22.317Z,2.58
2022-12-03T05:57:24.145Z,2.59
2022-12-03T05:58:25.980Z,2.55
2022-12-03T05:59:28.759Z,2.40
2022-12-03T06:00:32.011Z,2.36
2022-12-03T06:01:34.711Z,2.36
2022-12-03T06:02:36.755Z,2.40
2022-12-03T06:03:38.827Z,2.46
2022-12-03T06:04:41.023Z,2.46
2022-12-03T06:05:42.874Z,2.50
2022-12-03T06:06:44.774Z,2.53
2022-12-03T06:07:47.153Z,2.55
2022-12-03T06:08:49.068Z,2.57
2022-12-03T06:09:50.921Z,2.58
2022-12-03T06:10:52.786Z,2.56
2022-12-03T06:11:54.642Z,2.53
2022-12-03T06:12:56.551Z,2.56
2022-12-03T06:13:58.437Z,2.60
2022-12-03T06:15:00.360Z,2.62
2022-12-03T06:16:02.287Z,2.62
2022-12-03T06:17:05.309Z,2.63
2022-12-03T06:18:07.196Z,2.58
2022-12-03T06:19:09.018Z,2.58
2022-12-03T06:20:13.911Z,2.54
2022-12-03T06:21:15.760Z,2.56
2022-12-03T06:22:17.648Z,2.60
2022-12-03T06:23:19.529Z,2.63
2022-12-03T06:24:21.365Z,2.61
2022-12-03T06:25:23.335Z,2.62
2022-12-03T06:26:25.180Z,2.59
2022-12-03T06:27:27.045Z,2.59
2022-12-03T06:28:28.878Z,2.60
2022-12-03T06:29:30.795Z,2.63
2022-12-03T06:30:34.520Z,2.65
2022-12-03T06:31:36.428Z,2.63
2022-12-03T06:32:38.426Z,2.61
2022-12-03T06:33:40.271Z,2.65
2022-12-03T06:34:42.016Z,2.67
2022-12-03T06:35:43.890Z,2.66
2022-12-03T06:36:47.107Z,2.62
2022-12-03T06:37:48.977Z,2.63
2022-12-03T06:38:50.840Z,2.61
2022-12-03T06:39:52.785Z,2.57
2022-12-03T06:40:54.723Z,2.56
2022-12-03T06:41:56.553Z,2.54
2022-12-03T06:42:58.382Z,2.57
2022-12-03T06:44:00.696Z,2.60
2022-12-03T06:45:04.018Z,2.58
2022-12-03T06:46:06.310Z,2.58
2022-12-03T06:47:08.214Z,2.58
2022-12-03T06:48:10.098Z,2.62
2022-12-03T06:49:11.937Z,2.63
2022-12-03T06:50:14.440Z,2.62
2022-12-03T06:51:16.315Z,2.57
2022-12-03T06:52:18.830Z,2.60
2022-12-03T06:53:20.665Z,2.60
2022-12-03T06:54:22.552Z,2.66
2022-12-03T06:55:24.659Z,2.67
2022-12-03T06:56:31.163Z,2.68
2022-12-03T06:57:37.155Z,2.69
2022-12-03T06:58:38.907Z,2.72
2022-12-03T06:59:40.783Z,2.75
2022-12-03T07:00:42.662Z,2.74
2022-12-03T07:01:44.887Z,2.74
2022-12-03T07:02:46.869Z,2.66
2022-12-03T07:03:48.718Z,2.60
2022-12-03T07:04:50.559Z,2.61
2022-12-03T07:05:52.437Z,2.59
2022-12-03T07:06:55.874Z,2.59
2022-12-03T07:07:57.754Z,2.63
2022-12-03T07:08:59.646Z,2.64
2022-12-03T07:10:01.555Z,2.63
2022-12-03T07:11:03.474Z,2.65
2022-12-03T07:12:05.880Z,2.66
2022-12-03T07:13:07.777Z,2.71
2022-12-03T07:14:11.739Z,2.74
2022-12-03T07:15:13.791Z,2.77
2022-12-03T07:16:15.741Z,2.77
2022-12-03T07:17:17.786Z,2.70
2022-12-03T07:18:19.595Z,2.71
2022-12-03T07:19:21.447Z,2.70
2022-12-03T07:20:23.275Z,2.71
2022-12-03T07:21:25.130Z,2.67
2022-12-03T07:22:27.077Z,2.63
2022-12-03T07:23:28.984Z,2.64
2022-12-03T07:24:30.831Z,2.64
2022-12-03T07:25:32.703Z,2.70
2022-12-03T07:26:34.603Z,2.71
2022-12-03T07:27:36.512Z,2.73
2022-12-03T07:28:38.389Z,2.71
2022-12-03T07:29:40.608Z,2.73
2022-12-03T07:30:42.485Z,2.77
2022-12-03T07:31:44.400Z,2.80
2022-12-03T07:32:46.364Z,2.82
2022-12-03T07:33:48.282Z,2.83
2022-12-03T07:34:50.221Z,2.80
2022-12-03T07:35:52.210Z,2.76
2022-12-03T07:36:54.121Z,2.76
2022-12-03T07:37:56.071Z,2.80
2022-12-03T07:38:57.892Z,2.85
2022-12-03T07:39:59.819Z,2.88
2022-12-03T07:41:01.705Z,2.91
2022-12-03T07:42:03.732Z,2.88
2022-12-03T07:43:05.783Z,2.74
2022-12-03T07:44:12.525Z,2.73
2022-12-03T07:45:16.654Z,2.75
2022-12-03T07:46:35.619Z,2.74
2022-12-03T07:47:37.496Z,2.72
2022-12-03T07:48:39.432Z,2.71
2022-12-03T07:49:41.247Z,2.72
2022-12-03T07:50:43.255Z,2.75
2022-12-03T07:51:53.994Z,2.79
2022-12-03T07:52:56.052Z,2.82
2022-12-03T07:53:57.836Z,2.83
2022-12-03T07:54:59.632Z,2.83
2022-12-03T07:56:01.483Z,2.75
2022-12-03T07:57:03.365Z,2.64
2022-12-03T07:58:05.140Z,2.59
2022-12-03T07:59:06.954Z,2.59
2022-12-03T08:00:08.968Z,2.65
2022-12-03T08:01:10.921Z,2.66
2022-12-03T08:02:16.823Z,2.67
2022-12-03T08:03:23.000Z,2.72
2022-12-03T08:04:24.784Z,2.71
2022-12-03T08:05:27.381Z,2.69
2022-12-03T08:06:29.312Z,2.74
2022-12-03T08:07:31.972Z,2.77
2022-12-03T08:08:33.831Z,2.77
2022-12-03T08:09:35.678Z,2.79
2022-12-03T08:10:37.504Z,2.83
2022-12-03T08:11:39.327Z,2.87
2022-12-03T08:12:41.284Z,2.87
2022-12-03T08:13:43.307Z,2.80
2022-12-03T08:14:45.120Z,2.78
2022-12-03T08:15:46.995Z,2.82
2022-12-03T08:16:49.132Z,2.84
2022-12-03T08:17:56.248Z,2.82
2022-12-03T08:18:58.113Z,2.87
2022-12-03T08:20:00.006Z,2.90
2022-12-03T08:21:01.924Z,2.92
2022-12-03T08:22:10.784Z,2.92
2022-12-03T08:23:23.959Z,2.89
2022-12-03T08:24:25.748Z,2.87
2022-12-03T08:25:29.153Z,2.90
2022-12-03T08:26:31.093Z,2.87
2022-12-03T08:27:33.724Z,2.86
2022-12-03T08:28:36.120Z,2.90
2022-12-03T08:29:37.968Z,2.93
2022-12-03T08:30:40.416Z,2.93
2022-12-03T08:31:42.683Z,2.95
2022-12-03T08:32:45.067Z,2.95
2022-12-03T08:33:51.869Z,2.95
2022-12-03T08:34:53.815Z,2.94
2022-12-03T08:35:56.073Z,2.95
2022-12-03T08:37:02.399Z,2.96
2022-12-03T08:38:11.905Z,2.87
2022-12-03T08:39:30.848Z,2.80
2022-12-03T08:40:37.196Z,2.80
2022-12-03T08:41:57.582Z,2.85
2022-12-03T08:42:59.456Z,2.93
2022-12-03T08:44:01.339Z,2.99
2022-12-03T08:45:18.437Z,2.99
2022-12-03T08:46:20.516Z,3.07
2022-12-03T08:47:23.360Z,3.14
2022-12-03T08:48:29.828Z,3.15
2022-12-03T08:49:31.883Z,3.20
2022-12-03T08:50:42.014Z,3.23
2022-12-03T08:51:44.674Z,3.27
2022-12-03T08:52:46.556Z,3.27
2022-12-03T08:53:49.731Z,3.20
2022-12-03T08:54:55.914Z,3.25
2022-12-03T08:56:18.287Z,3.30
2022-12-03T08:57:20.036Z,3.35
2022-12-03T08:58:30.705Z,3.38
2022-12-03T08:59:32.607Z,3.31
2022-12-03T09:00:34.570Z,3.30
2022-12-03T09:01:43.108Z,3.25
2022-12-03T09:02:46.591Z,3.31
2022-12-03T09:03:55.066Z,3.37
2022-12-03T09:04:57.043Z,3.40
2022-12-03T09:05:58.987Z,3.43
2022-12-03T09:07:01.017Z,3.46
2022-12-03T09:08:02.980Z,3.48
2022-12-03T09:09:06.909Z,3.52
2022-12-03T09:10:09.117Z,3.56
2022-12-03T09:11:10.962Z,3.60
2022-12-03T09:12:12.920Z,3.62
2022-12-03T09:13:14.713Z,3.63
2022-12-03T09:14:18.836Z,3.66
2022-12-03T09:15:20.944Z,3.70
2022-12-03T09:16:23.031Z,3.76
2022-12-03T09:17:24.954Z,3.81
2022-12-03T09:18:26.807Z,3.80
2022-12-03T09:19:31.292Z,3.79
2022-12-03T09:20:33.198Z,3.76
2022-12-03T09:21:35.153Z,3.75
2022-12-03T09:22:37.144Z,3.78
2022-12-03T09:23:38.981Z,3.84
2022-12-03T09:24:40.872Z,3.83
2022-12-03T09:25:42.879Z,3.80
2022-12-03T09:26:44.763Z,3.78
2022-12-03T09:27:46.648Z,3.71
2022-12-03T09:28:48.561Z,3.73
2022-12-03T09:29:50.911Z,3.75
2022-12-03T09:30:52.878Z,3.80
2022-12-03T09:31:54.753Z,3.81
2022-12-03T09:32:56.747Z,3.82
2022-12-03T09:33:58.622Z,3.81
2022-12-03T09:35:00.448Z,3.84
2022-12-03T09:36:02.364Z,3.83
2022-12-03T09:37:04.269Z,3.82
2022-12-03T09:38:07.053Z,3.89
2022-12-03T09:39:09.009Z,3.93
2022-12-03T09:40:11.278Z,3.89
2022-12-03T09:41:13.271Z,3.91
2022-12-03T09:42:15.522Z,3.92
2022-12-03T09:43:18.251Z,3.87
2022-12-03T09:44:20.133Z,3.82
2022-12-03T09:45:23.506Z,3.78
2022-12-03T09:46:25.543Z,3.83
2022-12-03T09:47:27.518Z,3.89
2022-12-03T09:48:29.498Z,3.92
2022-12-03T09:49:32.319Z,3.96
2022-12-03T09:50:34.279Z,3.97
2022-12-03T09:51:36.630Z,3.94
2022-12-03T09:52:38.454Z,3.96
2022-12-03T09:53:41.468Z,4.02
2022-12-03T09:54:47.340Z,4.01
2022-12-03T09:55:49.803Z,4.01
2022-12-03T09:56:52.731Z,4.03
2022-12-03T09:57:55.251Z,4.01
2022-12-03T09:58:57.302Z,4.01
2022-12-03T09:59:59.310Z,4.03
2022-12-03T10:01:01.274Z,4.07
2022-12-03T10:02:05.192Z,4.08
2022-12-03T10:03:08.065Z,4.14
2022-12-03T10:04:10.152Z,4.18
2022-12-03T10:05:12.401Z,4.25
2022-12-03T10:06:16.539Z,4.30
2022-12-03T10:07:18.615Z,4.33
2022-12-03T10:08:22.403Z,4.29
2022-12-03T10:09:26.055Z,4.24
2022-12-03T10:10:27.925Z,4.21
2022-12-03T10:11:30.976Z,4.24
2022-12-03T10:12:32.866Z,4.25
2022-12-03T10:13:37.533Z,4.26
2022-12-03T10:14:39.685Z,4.28
2022-12-03T10:15:41.627Z,4.30
2022-12-03T10:16:44.228Z,4.28
2022-12-03T10:17:46.875Z,4.23
2022-12-03T10:18:53.540Z,4.23
2022-12-03T10:19:55.536Z,4.26
2022-12-03T10:20:58.189Z,4.27
2022-12-03T10:21:59.998Z,4.30
2022-12-03T10:23:01.853Z,4.32
2022-12-03T10:24:23.601Z,4.39
2022-12-03T10:25:25.424Z,4.46
2022-12-03T10:26:39.188Z,4.49
2022-12-03T10:27:41.632Z,4.54
2022-12-03T10:28:44.371Z,4.54
2022-12-03T10:29:54.211Z,4.51
2022-12-03T10:30:56.896Z,4.49
2022-12-03T10:32:00.143Z,4.49
2022-12-03T10:33:15.851Z,4.52
2022-12-03T10:34:46.746Z,4.53
2022-12-03T10:35:48.602Z,4.59
2022-12-03T10:37:08.716Z,4.61
2022-12-03T10:38:23.155Z,4.57
2022-12-03T10:39:25.023Z,4.59
2022-12-03T10:40:37.335Z,4.63
2022-12-03T10:41:40.127Z,4.60
2022-12-03T10:42:41.956Z,4.58
2022-12-03T10:43:43.835Z,4.59
2022-12-03T10:44:45.972Z,4.58
2022-12-03T10:45:48.963Z,4.58
2022-12-03T10:47:26.170Z,4.57
2022-12-03T10:48:28.116Z,4.57
2022-12-03T10:49:30.000Z,4.58
2022-12-03T10:50:32.263Z,4.63
2022-12-03T10:51:35.382Z,4.67
2022-12-03T10:52:37.311Z,4.64
2022-12-03T10:53:40.841Z,4.64
2022-12-03T10:54:42.758Z,4.66
2022-12-03T10:55:45.789Z,4.66
2022-12-03T10:56:48.645Z,4.67
2022-12-03T10:57:50.551Z,4.71
2022-12-03T10:58:52.891Z,4.75
2022-12-03T10:59:54.823Z,4.78
2022-12-03T11:00:57.753Z,4.78
2022-12-03T11:02:01.381Z,4.79
2022-12-03T11:03:03.370Z,4.79
2022-12-03T11:04:05.718Z,4.81
2022-12-03T11:05:07.968Z,4.79
2022-12-03T11:06:14.127Z,4.81
2022-12-03T11:07:17.911Z,4.81
2022-12-03T11:08:21.453Z,4.79
2022-12-03T11:09:29.850Z,4.81
2022-12-03T11:10:31.665Z,4.83
2022-12-03T11:11:33.617Z,4.81
2022-12-03T11:12:37.205Z,4.81
2022-12-03T11:13:39.024Z,4.80
2022-12-03T11:14:54.428Z,4.80
2022-12-03T11:15:57.042Z,4.79
2022-12-03T11:16:58.916Z,4.79
2022-12-03T11:18:01.002Z,4.80
2022-12-03T11:19:03.650Z,4.79
2022-12-03T11:20:06.415Z,4.80
2022-12-03T11:21:14.734Z,4.83
2022-12-03T11:22:17.846Z,4.82
2022-12-03T11:23:39.682Z,4.84
2022-12-03T11:24:41.502Z,4.83
2022-12-03T11:25:47.882Z,4.84
2022-12-03T11:26:52.772Z,4.84
2022-12-03T11:28:13.335Z,4.85
2022-12-03T11:29:15.366Z,4.80
2022-12-03T11:30:37.077Z,4.82
2022-12-03T11:31:48.676Z,4.79
2022-12-03T11:33:00.944Z,4.77
2022-12-03T11:34:21.195Z,4.77
2022-12-03T11:35:25.750Z,4.73
2022-12-03T11:36:47.760Z,4.73
2022-12-03T11:37:49.410Z,4.71
2022-12-03T11:38:53.925Z,4.69
2022-12-03T11:39:59.782Z,4.66
2022-12-03T11:41:12.059Z,4.67
2022-12-03T11:42:26.012Z,4.66
2022-12-03T11:43:51.097Z,4.67
2022-12-03T11:45:11.522Z,4.71
2022-12-03T11:46:13.540Z,4.76
2022-12-03T11:47:16.262Z,4.77
2022-12-03T11:48:18.996Z,4.78
2022-12-03T11:49:20.749Z,4.78
2022-12-03T11:50:24.355Z,4.80
2022-12-03T11:51:27.694Z,4.81
2022-12-03T11:52:39.422Z,4.84
2022-12-03T11:53:41.622Z,4.82
2022-12-03T11:54:43.764Z,4.82
2022-12-03T11:55:48.960Z,4.82
2022-12-03T11:56:50.924Z,4.84
2022-12-03T11:57:57.606Z,4.88
2022-12-03T11:59:02.986Z,4.88
2022-12-03T12:00:17.485Z,4.86
2022-12-03T12:01:35.469Z,4.91
2022-12-03T12:02:40.685Z,4.90
2022-12-03T12:03:44.720Z,4.92
2022-12-03T12:04:49.643Z,4.94
2022-12-03T12:06:00.640Z,4.93
2022-12-03T12:07:02.699Z,4.91
2022-12-03T12:08:04.732Z,4.91
2022-12-03T12:09:06.649Z,4.90
2022-12-03T12:10:08.579Z,4.93
2022-12-03T12:11:36.792Z,4.96
2022-12-03T12:12:39.528Z,4.98
2022-12-03T12:13:41.412Z,4.99
2022-12-03T12:14:44.344Z,5.01
2022-12-03T12:15:46.221Z,5.06
2022-12-03T12:16:52.378Z,5.06
2022-12-03T12:17:54.218Z,5.06
2022-12-03T12:18:56.412Z,5.06
2022-12-03T12:20:14.333Z,5.06
2022-12-03T12:21:34.942Z,5.03
2022-12-03T12:22:36.754Z,5.00
2022-12-03T12:23:38.626Z,4.95
2022-12-03T12:24:41.087Z,4.93
2022-12-03T12:25:43.007Z,4.93
2022-12-03T12:26:50.571Z,4.94
2022-12-03T12:27:54.120Z,4.93
2022-12-03T12:28:56.058Z,4.91
2022-12-03T12:29:59.589Z,4.94
2022-12-03T12:31:01.563Z,4.97
2022-12-03T12:32:09.472Z,4.99
2022-12-03T12:33:14.420Z,5.00
2022-12-03T12:34:16.397Z,5.00
2022-12-03T12:35:22.710Z,5.00
2022-12-03T12:36:24.687Z,5.04
2022-12-03T12:37:32.093Z,5.05
2022-12-03T12:38:34.028Z,5.01
2022-12-03T12:39:36.358Z,5.00
2022-12-03T12:40:39.850Z,4.99
2022-12-03T12:41:42.361Z,4.98
2022-12-03T12:42:52.678Z,4.97
2022-12-03T12:43:54.582Z,4.98
2022-12-03T12:45:00.206Z,4.99
2022-12-03T12:46:31.481Z,5.01
2022-12-03T12:47:32.417Z,5.00
2022-12-03T12:48:35.184Z,5.02
2022-12-03T12:49:37.082Z,5.04
2022-12-03T12:50:39.362Z,5.07
2022-12-03T12:51:44.902Z,5.09
2022-12-03T12:52:49.330Z,5.11
2022-12-03T12:53:51.364Z,5.13
2022-12-03T12:54:53.266Z,5.12
2022-12-03T12:56:18.313Z,5.12
2022-12-03T12:57:24.640Z,5.09
2022-12-03T12:58:29.380Z,5.09
2022-12-03T12:59:31.216Z,5.09
2022-12-03T13:00:33.080Z,5.09
2022-12-03T13:01:36.419Z,5.08
2022-12-03T13:02:44.686Z,5.09
2022-12-03T13:03:49.915Z,5.08
2022-12-03T13:04:51.933Z,5.12
2022-12-03T13:05:54.454Z,5.13
2022-12-03T13:06:56.397Z,5.16
2022-12-03T13:07:58.292Z,5.13
2022-12-03T13:09:03.259Z,5.13
2022-12-03T13:10:34.245Z,5.12
2022-12-03T13:11:37.337Z,5.13
2022-12-03T13:12:39.334Z,5.13
2022-12-03T13:13:44.302Z,5.12
2022-12-03T13:14:47.385Z,5.11
2022-12-03T13:15:51.101Z,5.12
2022-12-03T13:16:55.112Z,5.14
2022-12-03T13:17:57.230Z,5.15
2022-12-03T13:18:59.967Z,5.16
2022-12-03T13:20:07.425Z,5.15
2022-12-03T13:21:23.748Z,5.14
2022-12-03T13:22:25.946Z,5.17
2022-12-03T13:23:30.443Z,5.17
2022-12-03T13:24:35.163Z,5.17
2022-12-03T13:26:00.314Z,5.15
2022-12-03T13:27:00.814Z,5.14
2022-12-03T13:28:02.639Z,5.14
2022-12-03T13:29:24.996Z,5.15
2022-12-03T13:30:29.191Z,5.13
2022-12-03T13:31:34.160Z,5.13
2022-12-03T13:32:39.595Z,5.14
2022-12-03T13:33:42.458Z,5.10
2022-12-03T13:34:45.464Z,5.09
2022-12-03T13:35:47.352Z,5.12
2022-12-03T13:36:56.957Z,5.14
2022-12-03T13:37:59.734Z,5.15
2022-12-03T13:39:02.475Z,5.15
2022-12-03T13:40:19.728Z,5.13
2022-12-03T13:41:39.902Z,5.15
2022-12-03T13:42:46.844Z,5.14
2022-12-03T13:43:48.669Z,5.13
2022-12-03T13:44:50.585Z,5.12
2022-12-03T13:45:54.650Z,5.11
2022-12-03T13:46:56.653Z,5.14
2022-12-03T13:48:00.431Z,5.14
2022-12-03T13:49:02.435Z,5.11
2022-12-03T13:50:16.555Z,5.10
2022-12-03T13:51:26.602Z,5.11
2022-12-03T13:52:32.917Z,5.12
2022-12-03T13:53:37.259Z,5.13
2022-12-03T13:54:39.788Z,5.14
2022-12-03T13:55:45.829Z,5.13
2022-12-03T13:56:47.741Z,5.11
2022-12-03T13:57:49.602Z,5.09
2022-12-03T13:58:51.561Z,5.09
2022-12-03T13:59:53.718Z,5.09
2022-12-03T14:00:55.852Z,5.08
2022-12-03T14:01:57.742Z,5.07
2022-12-03T14:02:59.560Z,5.07
2022-12-03T14:04:01.469Z,5.09
2022-12-03T14:05:03.495Z,5.08
2022-12-03T14:06:06.511Z,5.06
2022-12-03T14:07:08.306Z,5.07
2022-12-03T14:08:10.230Z,5.08
2022-12-03T14:09:12.305Z,5.05
2022-12-03T14:10:14.310Z,5.04
2022-12-03T14:11:34.505Z,5.05
2022-12-03T14:12:36.504Z,5.07
2022-12-03T14:13:38.437Z,5.08